Camdenton, MO

8:04 PM CDT on August 28, 2014 (GMT -0500)
Camdenton | Change Station
CLOSE
Current Station
Airport
Location: Camdenton,
Elevation: 1063 ft
Nearby Weather Stations

Elev 1063 ft 37.97 °N, 92.69 °W | Updated 9 minutes ago

Scattered Clouds
Scattered Clouds
82 °F
Feels Like 84 °F
N
5
Wind Variable Wind from South

Today
High -- | Low -- °F
--% Chance of Precip.
Yesterday
High -- | Low -- °F
Precip. -- in
6:37 AM 7:46 PM
Waxing Crescent, 11% visible
Pressure 29.94 in
Visibility 10.0 miles
Clouds Scattered Clouds 7500 ft
Heat Index 84 °F
Dew Point 64 °F
Humidity 54%
Rainfall 0.00 in
Snow Depth Not available.
UV 0 out of 12
Pollen 10.40 out of 12
Air Quality Not available.
Flu Activity Not available.
METAR KH21 290055Z AUTO 17004KT 10SM SCT075 28/18 A2994 RMK AO2

More Conditions Fewer Conditions

Pressure 29.94 in
Visibility 10.0 miles
Clouds Scattered Clouds 7500 ft
Heat Index 84 °F
Dew Point 64 °F
Humidity 54%
Rainfall 0.00 in
Snow Depth Not available.
UV 0 out of 12
Pollen 10.40 out of 12
Air Quality Not available.
Flu Activity Not available.
METAR KH21 290055Z AUTO 17004KT 10SM SCT075 28/18 A2994 RMK AO2

More Conditions Fewer Conditions

10-Day Weather Forecast

Almanac

Astronomy

Aug. 28, 2014 Rise Set
Actual Time 6:37 AM CDT 7:46 PM CDT
Civil Twilight 6:10 AM CDT 8:13 PM CDT
Nautical Twilight 5:37 AM CDT 8:45 PM CDT
Astronomical Twilight 5:03 AM CDT 9:19 PM CDT
Moon 9:26 AM CDT (8/28) 9:14 PM CDT (8/28)
Length of Visible Light 14h 03m
Length of Day
13h 08m
Tomorrow will be 2m 18s shorter.
Waxing Crescent, 11% of the Moon is Illuminated
Today
Waxing Crescent
Sep 2
First Quarter
Sep 8
Full
Sep 15
Last Quarter
Sep 24
New

Today's Extremes

State Highs State Lows

Community

WunderPhotos

Upload Photos

1,748,121 photos uploaded!

Nearby

Snow Depth

Station Depth Elevation
No new snow has been reported.

Earthquake Activity

City Distance Mag. Time & Date
No recent earthquake activity has been reported nearby.
Minimum magnitude displayed is 2.5.

Coastal Water Temperatures

Place Temperature
No Stations Reporting

Nearby Weather Stations